Time;durP1;ratioP1;P1;durP2;ratioP2;P2;SDS_P1;SDS_P2;PMS_P1;PMS_P2;Temp;Humidity;BMP_temperature;BMP_pressure;BME280_temperature;BME280_humidity;BME280_pressure;Samples;Min_cycle;Max_cycle;Signal;HPM_P1;HPM_P2
2023/04/28 00:01:44;;;;;;;11.00;7.25;;;;;;;-144.85;100.00;61331.59;5035885;28;32791;-78
2023/04/28 00:04:11;;;;;;;11.80;7.32;;;;;;;-144.85;100.00;61331.59;5035984;28;33011;-78
2023/04/28 00:06:39;;;;;;;12.25;7.10;;;;;;;-144.85;100.00;61331.59;5034460;28;31790;-78
2023/04/28 00:09:10;;;;;;;12.60;7.25;;;;;;;-144.85;100.00;61331.59;5018073;28;31689;-78
2023/04/28 00:11:37;;;;;;;9.00;6.85;;;;;;;-144.85;100.00;61331.59;5032872;28;33206;-78
2023/04/28 00:14:05;;;;;;;10.32;6.70;;;;;;;-144.85;100.00;61331.59;5035999;28;33189;-78
2023/04/28 00:16:32;;;;;;;12.93;7.32;;;;;;;-144.85;100.00;61331.59;5052501;28;31710;-78
2023/04/28 00:19:00;;;;;;;11.80;7.05;;;;;;;-144.85;100.00;61331.59;5054546;28;30418;-79
2023/04/28 00:21:27;;;;;;;11.57;7.22;;;;;;;-144.85;100.00;61331.59;5039105;28;32621;-78
2023/04/28 00:23:55;;;;;;;12.05;7.43;;;;;;;-144.85;100.00;61331.59;5039679;28;32158;-78
2023/04/28 00:26:22;;;;;;;10.90;7.20;;;;;;;-144.85;100.00;61331.59;5039812;28;31858;-78
2023/04/28 00:28:49;;;;;;;13.15;7.35;;;;;;;-144.85;100.00;61331.59;5040403;28;32502;-79
2023/04/28 00:31:16;;;;;;;11.27;6.95;;;;;;;-144.85;100.00;61331.59;5054903;28;31571;-78
2023/04/28 00:33:44;;;;;;;12.15;7.15;;;;;;;-144.85;100.00;61331.59;5055416;28;31940;-78
2023/04/28 00:36:11;;;;;;;10.45;7.22;;;;;;;-144.85;100.00;61331.59;5054845;28;31981;-78
2023/04/28 00:38:38;;;;;;;10.90;7.40;;;;;;;-144.85;100.00;61331.59;5040148;28;31182;-78
2023/04/28 00:41:08;;;;;;;14.20;7.32;;;;;;;-144.85;100.00;61331.59;5038057;28;32232;-78
2023/04/28 00:43:45;;;;;;;13.75;8.00;;;;;;;-144.85;100.00;61331.59;5038857;28;33609;-78
2023/04/28 00:46:33;;;;;;;12.50;7.90;;;;;;;-144.85;100.00;61331.59;5038249;28;32081;-79
2023/04/28 00:49:02;;;;;;;10.75;7.22;;;;;;;-144.85;100.00;61331.59;5037818;28;31598;-80
2023/04/28 00:51:32;;;;;;;11.52;7.32;;;;;;;-144.85;100.00;61331.59;5030787;28;32763;-78
2023/04/28 00:53:59;;;;;;;10.88;7.05;;;;;;;-144.85;100.00;61331.59;5035615;28;31074;-78
2023/04/28 00:56:30;;;;;;;12.20;7.65;;;;;;;-144.85;100.00;61331.59;5039061;28;31534;-79
2023/04/28 00:58:58;;;;;;;14.32;7.90;;;;;;;-144.85;100.00;61331.59;5054951;28;32791;-79
2023/04/28 01:01:25;;;;;;;11.55;7.38;;;;;;;-144.85;100.00;61331.59;5054822;28;31296;-78
2023/04/28 01:03:53;;;;;;;13.82;7.50;;;;;;;-144.85;100.00;61331.59;5055961;28;31453;-79
2023/04/28 01:06:22;;;;;;;12.60;7.00;;;;;;;-144.85;100.00;61331.59;5048152;28;33252;-78
2023/04/28 01:08:52;;;;;;;11.25;7.45;;;;;;;-144.85;100.00;61331.59;5037705;28;30480;-79
2023/04/28 01:11:20;;;;;;;10.38;7.18;;;;;;;-144.85;100.00;61331.59;5038949;28;32306;-79
2023/04/28 01:14:06;;;;;;;12.10;7.38;;;;;;;-144.85;100.00;61331.59;5037775;28;33417;-79
2023/04/28 01:16:37;;;;;;;11.18;7.30;;;;;;;-144.85;100.00;61331.59;5034535;28;30842;-78
2023/04/28 01:19:07;;;;;;;10.52;7.70;;;;;;;-144.85;100.00;61331.59;5036536;28;32011;-79
2023/04/28 01:21:38;;;;;;;12.02;7.38;;;;;;;-144.85;100.00;61331.59;5058831;28;31288;-78
2023/04/28 01:24:17;;;;;;;13.43;7.75;;;;;;;-144.85;100.00;61331.59;5055178;28;32920;-78
2023/04/28 01:26:45;;;;;;;13.18;7.75;;;;;;;-144.85;100.00;61331.59;5054061;28;31090;-79
2023/04/28 01:29:12;;;;;;;12.73;7.53;;;;;;;-144.85;100.00;61331.59;5056677;28;30827;-78
2023/04/28 01:31:40;;;;;;;13.65;8.20;;;;;;;-144.85;100.00;61331.59;5054257;28;31359;-79
2023/04/28 01:34:07;;;;;;;12.90;7.57;;;;;;;-144.85;100.00;61331.59;5022536;28;30946;-79
2023/04/28 01:36:35;;;;;;;12.25;7.53;;;;;;;-144.85;100.00;61331.59;5037425;28;30703;-78
2023/04/28 01:39:04;;;;;;;14.25;7.93;;;;;;;-144.85;100.00;61331.59;5038992;28;31862;-78
2023/04/28 01:41:35;;;;;;;11.73;7.95;;;;;;;-144.85;100.00;61331.59;5039072;28;31711;-79
2023/04/28 01:44:05;;;;;;;13.57;7.88;;;;;;;-144.85;100.00;61331.59;5055677;28;31028;-79
2023/04/28 01:46:32;;;;;;;12.20;8.38;;;;;;;-144.85;100.00;61331.59;5037561;28;32166;-78
2023/04/28 01:49:00;;;;;;;14.68;7.97;;;;;;;-144.85;100.00;61331.59;5037967;28;30368;-78
2023/04/28 01:51:27;;;;;;;12.75;8.30;;;;;;;-144.85;100.00;61331.59;5044637;28;32372;-79
2023/04/28 01:53:54;;;;;;;14.15;8.63;;;;;;;-144.85;100.00;61331.59;5044549;28;31341;-79
2023/04/28 01:56:21;;;;;;;14.07;8.38;;;;;;;-144.85;100.00;61331.59;5058930;28;30716;-80
2023/04/28 01:58:51;;;;;;;12.07;8.45;;;;;;;-144.85;100.00;61331.59;5048247;28;30936;-78
2023/04/28 02:01:18;;;;;;;14.15;8.23;;;;;;;-144.85;100.00;61331.59;5053442;28;31480;-78
2023/04/28 02:03:45;;;;;;;14.68;9.00;;;;;;;-144.85;100.00;61331.59;5037183;28;31163;-78
2023/04/28 02:06:13;;;;;;;13.80;8.65;;;;;;;-144.85;100.00;61331.59;5036033;28;30923;-78
2023/04/28 02:08:40;;;;;;;14.20;9.55;;;;;;;-144.85;100.00;61331.59;5036759;28;32677;-78
2023/04/28 02:11:07;;;;;;;13.48;9.30;;;;;;;-144.85;100.00;61331.59;5038795;28;32446;-79
2023/04/28 02:13:35;;;;;;;15.30;8.90;;;;;;;-144.85;100.00;61331.59;5052457;28;31003;-78
2023/04/28 02:16:03;;;;;;;15.07;9.50;;;;;;;-144.85;100.00;61331.59;5040463;28;31546;-78
2023/04/28 02:18:30;;;;;;;14.88;9.45;;;;;;;-144.85;100.00;61331.59;5053489;28;31813;-79
2023/04/28 02:21:13;;;;;;;12.85;9.15;;;;;;;-144.85;100.00;61331.59;5020706;28;32186;-78
2023/04/28 02:23:40;;;;;;;15.05;8.90;;;;;;;-144.85;100.00;61331.59;5037315;28;32857;-79
2023/04/28 02:26:07;;;;;;;13.93;9.00;;;;;;;-144.85;100.00;61331.59;5043616;28;32614;-78
2023/04/28 02:28:35;;;;;;;14.23;8.77;;;;;;;-144.85;100.00;61331.59;5055641;28;30718;-78
2023/04/28 02:31:09;;;;;;;13.45;8.55;;;;;;;-144.85;100.00;61331.59;5055339;28;31400;-78
2023/04/28 02:33:37;;;;;;;16.67;8.63;;;;;;;-144.85;100.00;61331.59;5041377;28;33314;-79
2023/04/28 02:36:05;;;;;;;16.45;9.15;;;;;;;-144.85;100.00;61331.59;5039492;28;32571;-78
2023/04/28 02:38:33;;;;;;;13.95;8.63;;;;;;;-144.85;100.00;61331.59;5039704;28;31499;-79
2023/04/28 02:41:05;;;;;;;14.57;9.05;;;;;;;-144.85;100.00;61331.59;5071228;28;31570;-78
2023/04/28 02:43:33;;;;;;;13.95;9.32;;;;;;;-144.85;100.00;61331.59;5057442;28;31263;-78
2023/04/28 02:46:04;;;;;;;13.50;8.75;;;;;;;-144.85;100.00;61331.59;5058563;28;32255;-79
2023/04/28 02:48:34;;;;;;;15.70;9.00;;;;;;;-144.85;100.00;61331.59;5055652;28;31584;-78
2023/04/28 02:51:02;;;;;;;14.68;8.68;;;;;;;-144.85;100.00;61331.59;5072057;28;31535;-79
2023/04/28 02:53:30;;;;;;;15.10;9.05;;;;;;;-144.85;100.00;61331.59;5061403;28;30491;-78
2023/04/28 02:55:58;;;;;;;13.23;8.85;;;;;;;-144.85;100.00;61331.59;5062104;28;31973;-77
2023/04/28 02:58:25;;;;;;;17.02;9.60;;;;;;;-144.85;100.00;61331.59;5057768;28;31642;-80
2023/04/28 03:00:52;;;;;;;13.70;9.32;;;;;;;-144.85;100.00;61331.59;5056228;28;33665;-78
2023/04/28 03:03:20;;;;;;;14.73;8.95;;;;;;;-144.85;100.00;61331.59;5055281;28;31160;-78
2023/04/28 03:05:47;;;;;;;14.70;9.43;;;;;;;-144.85;100.00;61331.59;5055195;28;30698;-78
2023/04/28 03:08:15;;;;;;;13.80;8.65;;;;;;;-144.85;100.00;61331.59;5049639;28;31802;-78
2023/04/28 03:10:42;;;;;;;16.20;9.13;;;;;;;-144.85;100.00;61331.59;5029089;28;30973;-78
2023/04/28 03:13:10;;;;;;;16.70;9.77;;;;;;;-144.85;100.00;61331.59;5041317;28;31499;-78
2023/04/28 03:15:37;;;;;;;15.75;9.75;;;;;;;-144.85;100.00;61331.59;5053130;28;31064;-78
2023/04/28 03:18:05;;;;;;;15.13;9.40;;;;;;;-144.85;100.00;61331.59;5052902;28;30412;-78
2023/04/28 03:20:33;;;;;;;13.60;9.77;;;;;;;-144.85;100.00;61331.59;5039104;28;31602;-78
2023/04/28 03:23:01;;;;;;;14.57;9.75;;;;;;;-144.85;100.00;61331.59;5039414;28;31203;-79
2023/04/28 03:25:28;;;;;;;14.70;9.15;;;;;;;-144.85;100.00;61331.59;5040755;28;32801;-79
2023/04/28 03:27:55;;;;;;;21.10;10.38;;;;;;;-144.85;100.00;61331.59;5038732;28;30590;-79
2023/04/28 03:30:22;;;;;;;16.95;10.27;;;;;;;-144.85;100.00;61331.59;5037921;28;33498;-79
2023/04/28 03:32:50;;;;;;;18.73;9.32;;;;;;;-144.85;100.00;61331.59;5064476;28;32523;-79
2023/04/28 03:35:17;;;;;;;17.38;10.38;;;;;;;-144.85;100.00;61331.59;5071428;28;33331;-78
2023/04/28 03:37:44;;;;;;;17.85;10.65;;;;;;;-144.85;100.00;61331.59;5070543;28;30298;-79
2023/04/28 03:40:12;;;;;;;18.13;10.73;;;;;;;-144.85;100.00;61331.59;5053962;28;31472;-78
2023/04/28 03:43:02;;;;;;;17.08;10.07;;;;;;;-144.85;100.00;61331.59;5061983;28;32817;-78
2023/04/28 03:45:39;;;;;;;17.30;10.93;;;;;;;-144.85;100.00;61331.59;5047301;28;31579;-78
2023/04/28 03:48:08;;;;;;;18.13;11.10;;;;;;;-144.85;100.00;61331.59;5069394;28;31119;-79
2023/04/28 03:50:35;;;;;;;19.52;11.55;;;;;;;-144.85;100.00;61331.59;5056163;28;32343;-78
2023/04/28 03:53:03;;;;;;;21.83;11.07;;;;;;;-144.85;100.00;61331.59;5056272;28;32492;-79
2023/04/28 03:55:31;;;;;;;19.50;11.43;;;;;;;-144.85;100.00;61331.59;5073903;28;30651;-80
2023/04/28 03:57:58;;;;;;;19.08;12.25;;;;;;;-144.85;100.00;61331.59;5058855;28;32678;-79
2023/04/28 04:00:25;;;;;;;16.13;11.25;;;;;;;-144.85;100.00;61331.59;5073684;28;31090;-79
2023/04/28 04:02:53;;;;;;;18.85;11.68;;;;;;;-144.85;100.00;61331.59;5055456;28;31069;-81
2023/04/28 04:05:21;;;;;;;21.52;11.98;;;;;;;-144.85;100.00;61331.59;5056998;28;32549;-79
2023/04/28 04:07:48;;;;;;;21.73;12.18;;;;;;;-144.85;100.00;61331.59;5050593;28;30741;-79
2023/04/28 04:10:15;;;;;;;18.77;11.95;;;;;;;-144.85;100.00;61331.59;5055690;28;32375;-79
2023/04/28 04:12:44;;;;;;;18.90;11.52;;;;;;;-144.85;100.00;61331.59;5030350;28;30942;-80
2023/04/28 04:15:11;;;;;;;19.23;12.05;;;;;;;-144.85;100.00;61331.59;5041380;28;32082;-79
2023/04/28 04:17:39;;;;;;;20.83;11.73;;;;;;;-144.85;100.00;61331.59;5054791;28;30503;-80
2023/04/28 04:20:07;;;;;;;18.73;12.23;;;;;;;-144.85;100.00;61331.59;5038768;28;32280;-79
2023/04/28 04:22:34;;;;;;;22.38;11.75;;;;;;;-144.85;100.00;61331.59;5052830;28;30889;-79
2023/04/28 04:25:02;;;;;;;19.30;11.48;;;;;;;-144.85;100.00;61331.59;5053765;28;31817;-79
2023/04/28 04:27:29;;;;;;;23.58;12.40;;;;;;;-144.85;100.00;61331.59;5051895;28;30943;-79
2023/04/28 04:29:57;;;;;;;20.95;12.35;;;;;;;-144.85;100.00;61331.59;5055758;28;32686;-79
2023/04/28 04:32:26;;;;;;;22.40;12.65;;;;;;;-144.85;100.00;61331.59;5053617;28;32508;-79
2023/04/28 04:34:53;;;;;;;23.60;12.18;;;;;;;-144.85;100.00;61331.59;5049357;28;31693;-79
2023/04/28 04:37:20;;;;;;;24.45;12.45;;;;;;;-144.85;100.00;61331.59;5037005;28;32408;-80
2023/04/28 04:39:54;;;;;;;22.48;12.80;;;;;;;-144.85;100.00;61331.59;5054045;28;32670;-79
2023/04/28 04:42:22;;;;;;;20.35;12.23;;;;;;;-144.85;100.00;61331.59;5038056;28;32468;-79
2023/04/28 04:45:05;;;;;;;20.98;12.15;;;;;;;-144.85;100.00;61331.59;5054144;28;31020;-79
2023/04/28 04:47:33;;;;;;;20.08;12.48;;;;;;;-144.85;100.00;61331.59;5053906;28;30875;-79
2023/04/28 04:50:00;;;;;;;19.60;13.23;;;;;;;-144.85;100.00;61331.59;5056669;28;30907;-79
2023/04/28 04:52:28;;;;;;;21.67;12.70;;;;;;;-144.85;100.00;61331.59;5053253;28;31327;-78
2023/04/28 04:54:55;;;;;;;18.75;11.98;;;;;;;-144.85;100.00;61331.59;5034260;28;30787;-79
2023/04/28 04:57:24;;;;;;;20.00;12.32;;;;;;;-144.85;100.00;61331.59;5053179;28;30390;-79
2023/04/28 05:00:11;;;;;;;20.95;12.35;;;;;;;-144.85;100.00;61331.59;5053943;28;31297;-79
2023/04/28 05:02:39;;;;;;;21.48;13.30;;;;;;;-144.85;100.00;61331.59;5052489;28;32436;-79
2023/04/28 05:05:07;;;;;;;19.05;12.60;;;;;;;-144.85;100.00;61331.59;5053510;28;30924;-78
2023/04/28 05:07:53;;;;;;;23.45;12.82;;;;;;;-144.85;100.00;61331.59;5037246;28;31531;-81
2023/04/28 05:10:21;;;;;;;22.17;12.88;;;;;;;-144.85;100.00;61331.59;5049511;28;31561;-79
2023/04/28 05:12:48;;;;;;;19.20;12.85;;;;;;;-144.85;100.00;61331.59;5053375;28;30881;-79
2023/04/28 05:15:17;;;;;;;20.83;12.68;;;;;;;-144.85;100.00;61331.59;5036950;28;30902;-79
2023/04/28 05:18:08;;;;;;;19.50;13.13;;;;;;;-144.85;100.00;61331.59;5053245;28;30890;-79
2023/04/28 05:20:36;;;;;;;20.17;12.68;;;;;;;-144.85;100.00;61331.59;5053455;28;31357;-79
2023/04/28 05:23:04;;;;;;;18.70;12.20;;;;;;;-144.85;100.00;61331.59;5031744;28;31252;-80
2023/04/28 05:25:32;;;;;;;22.95;13.70;;;;;;;-144.85;100.00;61331.59;5037161;28;30426;-79
2023/04/28 05:28:03;;;;;;;23.23;12.88;;;;;;;-144.85;100.00;61331.59;5053916;28;31439;-80
2023/04/28 05:30:30;;;;;;;21.50;13.30;;;;;;;-144.85;100.00;61331.59;5052089;28;31489;-79
2023/04/28 05:32:59;;;;;;;21.73;12.60;;;;;;;-144.85;100.00;61331.59;5028414;28;31146;-79
2023/04/28 05:35:27;;;;;;;18.63;13.18;;;;;;;-144.85;100.00;61331.59;5036213;28;31000;-78
2023/04/28 05:37:54;;;;;;;19.52;13.00;;;;;;;-144.85;100.00;61331.59;5053049;28;30993;-79
2023/04/28 05:40:22;;;;;;;19.00;12.27;;;;;;;-144.85;100.00;61331.59;5030923;28;31592;-79
2023/04/28 05:42:49;;;;;;;20.17;13.15;;;;;;;-144.85;100.00;61331.59;5045543;28;31198;-80
2023/04/28 05:45:16;;;;;;;18.73;12.93;;;;;;;-144.85;100.00;61331.59;5053903;28;31991;-79
2023/04/28 05:47:43;;;;;;;22.65;12.50;;;;;;;-144.85;100.00;61331.59;5036852;28;30664;-80
2023/04/28 05:50:10;;;;;;;20.60;13.02;;;;;;;-144.85;100.00;61331.59;5052261;28;32471;-80
2023/04/28 05:52:38;;;;;;;20.23;12.75;;;;;;;-144.85;100.00;61331.59;5036253;28;32078;-81
2023/04/28 05:55:06;;;;;;;20.73;13.05;;;;;;;-144.85;100.00;61331.59;5052706;28;31232;-79
2023/04/28 05:57:34;;;;;;;20.10;11.85;;;;;;;-144.85;100.00;61331.59;5052892;28;31547;-78
2023/04/28 06:00:19;;;;;;;16.33;12.38;;;;;;;-144.85;100.00;61331.59;5050010;28;31691;-79
2023/04/28 06:02:47;;;;;;;18.17;12.90;;;;;;;-144.85;100.00;61331.59;5049818;28;31700;-79
2023/04/28 06:05:15;;;;;;;18.58;12.27;;;;;;;-144.85;100.00;61331.59;5052681;28;30890;-81
2023/04/28 06:07:44;;;;;;;18.95;12.57;;;;;;;-144.85;100.00;61331.59;5049899;28;30653;-78
2023/04/28 06:10:11;;;;;;;21.23;12.90;;;;;;;-144.85;100.00;61331.59;5036808;28;31618;-80
2023/04/28 06:12:38;;;;;;;17.35;12.68;;;;;;;-144.85;100.00;61331.59;5036474;28;31218;-79
2023/04/28 06:15:06;;;;;;;20.02;12.32;;;;;;;-144.85;100.00;61331.59;5047313;28;32599;-79
2023/04/28 06:17:33;;;;;;;22.50;13.25;;;;;;;-144.85;100.00;61331.59;5037731;28;31381;-79
2023/04/28 06:20:01;;;;;;;19.00;12.15;;;;;;;-144.85;100.00;61331.59;5037527;28;32458;-79
2023/04/28 06:22:28;;;;;;;17.83;11.98;;;;;;;-144.85;100.00;61331.59;5054775;28;32307;-78
2023/04/28 06:24:55;;;;;;;16.65;11.93;;;;;;;-144.85;100.00;61331.59;5036964;28;31737;-80
2023/04/28 06:27:31;;;;;;;17.05;12.20;;;;;;;-144.85;100.00;61331.59;5045436;28;30686;-78
2023/04/28 06:29:58;;;;;;;16.92;12.10;;;;;;;-144.85;100.00;61331.59;5040274;28;32423;-79
2023/04/28 06:32:26;;;;;;;16.95;11.45;;;;;;;-144.85;100.00;61331.59;5036653;28;33405;-79
2023/04/28 06:34:53;;;;;;;19.27;12.02;;;;;;;-144.85;100.00;61331.59;5050988;28;31811;-80
2023/04/28 06:37:22;;;;;;;14.65;11.32;;;;;;;-144.85;100.00;61331.59;5035685;28;30805;-79
2023/04/28 06:39:50;;;;;;;18.70;11.52;;;;;;;-144.85;100.00;61331.59;5037116;28;32640;-80
2023/04/28 06:42:19;;;;;;;19.20;11.55;;;;;;;-144.85;100.00;61331.59;5053516;28;31406;-78
2023/04/28 06:44:54;;;;;;;15.98;11.60;;;;;;;-144.85;100.00;61331.59;5032681;28;30622;-79
2023/04/28 06:47:21;;;;;;;17.05;11.57;;;;;;;-144.85;100.00;61331.59;5031295;28;31793;-79
2023/04/28 06:49:49;;;;;;;17.67;11.82;;;;;;;-144.85;100.00;61331.59;5052152;28;33577;-81
2023/04/28 06:52:16;;;;;;;19.02;11.57;;;;;;;-144.85;100.00;61331.59;5059743;28;31222;-81
2023/04/28 06:54:43;;;;;;;16.08;11.18;;;;;;;-144.85;100.00;61331.59;5052833;28;30957;-79
2023/04/28 06:57:10;;;;;;;18.02;11.30;;;;;;;-144.85;100.00;61331.59;5052878;28;31674;-78
2023/04/28 06:59:38;;;;;;;22.13;11.63;;;;;;;-144.85;100.00;61331.59;5037837;28;32439;-80
2023/04/28 07:02:05;;;;;;;16.33;11.50;;;;;;;-144.85;100.00;61331.59;5042024;28;33254;-79
2023/04/28 07:04:32;;;;;;;19.40;11.40;;;;;;;-144.85;100.00;61331.59;5041398;28;32915;-80
2023/04/28 07:07:00;;;;;;;17.00;11.73;;;;;;;-144.85;100.00;61331.59;5050663;28;32713;-80
2023/04/28 07:09:27;;;;;;;19.52;11.55;;;;;;;-144.85;100.00;61331.59;5046728;28;32527;-78
2023/04/28 07:11:57;;;;;;;17.23;10.82;;;;;;;-144.85;100.00;61331.59;5046260;28;32260;-80
2023/04/28 07:14:24;;;;;;;15.13;10.90;;;;;;;-144.85;100.00;61331.59;5059374;28;30521;-80
2023/04/28 07:16:51;;;;;;;15.77;10.50;;;;;;;-144.85;100.00;61331.59;5053471;28;31371;-80
2023/04/28 07:19:19;;;;;;;17.00;11.02;;;;;;;-144.85;100.00;61331.59;5036685;28;32613;-79
2023/04/28 07:21:46;;;;;;;18.85;11.55;;;;;;;-144.85;100.00;61331.59;5046158;28;30921;-80
2023/04/28 07:24:13;;;;;;;18.05;10.15;;;;;;;-144.85;100.00;61331.59;5037791;28;32787;-80
2023/04/28 07:26:41;;;;;;;18.38;10.93;;;;;;;-144.85;100.00;61331.59;5039422;28;30328;-81
2023/04/28 07:29:09;;;;;;;15.75;10.93;;;;;;;-144.85;100.00;61331.59;5050427;28;32304;-80
2023/04/28 07:31:36;;;;;;;15.80;10.73;;;;;;;-144.85;100.00;61331.59;5059346;28;32909;-80
2023/04/28 07:34:03;;;;;;;19.85;11.00;;;;;;;-144.85;100.00;61331.59;5041143;28;31721;-80
2023/04/28 07:36:30;;;;;;;14.50;10.57;;;;;;;-144.85;100.00;61331.59;5038104;28;31017;-79
2023/04/28 07:38:59;;;;;;;15.85;10.27;;;;;;;-144.85;100.00;61331.59;5041196;28;33361;-79
2023/04/28 07:41:27;;;;;;;15.93;10.23;;;;;;;-144.85;100.00;61331.59;5054737;28;31985;-80
2023/04/28 07:43:54;;;;;;;20.33;11.70;;;;;;;-144.85;100.00;61331.59;5056414;28;30187;-82
2023/04/28 07:46:22;;;;;;;16.67;10.13;;;;;;;-144.85;100.00;61331.59;5055981;28;32795;-79
2023/04/28 07:48:49;;;;;;;13.32;9.68;;;;;;;-144.85;100.00;61331.59;5039139;28;32544;-81
2023/04/28 07:51:17;;;;;;;17.25;10.35;;;;;;;-144.85;100.00;61331.59;5055409;28;31945;-79
2023/04/28 07:53:44;;;;;;;14.73;10.18;;;;;;;-144.85;100.00;61331.59;5040363;28;32478;-80
2023/04/28 07:56:11;;;;;;;13.80;10.35;;;;;;;-144.85;100.00;61331.59;5039970;28;31562;-80
2023/04/28 07:58:39;;;;;;;17.20;10.45;;;;;;;-144.85;100.00;61331.59;5056250;28;32697;-81
2023/04/28 08:01:07;;;;;;;13.77;9.68;;;;;;;-144.85;100.00;61331.59;5054646;28;33099;-80
2023/04/28 08:03:34;;;;;;;16.15;10.05;;;;;;;-144.85;100.00;61331.59;5055847;28;31356;-80
2023/04/28 08:06:01;;;;;;;15.20;10.30;;;;;;;-144.85;100.00;61331.59;5035750;28;31722;-80
2023/04/28 08:08:29;;;;;;;14.23;10.32;;;;;;;-144.85;100.00;61331.59;5034573;28;33258;-81
2023/04/28 08:10:58;;;;;;;15.15;9.63;;;;;;;-144.85;100.00;61331.59;5038912;28;31631;-79
2023/04/28 08:13:25;;;;;;;16.38;9.93;;;;;;;-144.85;100.00;61331.59;5055145;28;33299;-80
2023/04/28 08:15:55;;;;;;;16.42;10.13;;;;;;;-144.85;100.00;61331.59;5054615;28;30569;-79
2023/04/28 08:18:22;;;;;;;12.13;9.77;;;;;;;-144.85;100.00;61331.59;5055255;28;33503;-80
2023/04/28 08:20:49;;;;;;;14.10;10.55;;;;;;;-144.85;100.00;61331.59;5055346;28;31776;-80
2023/04/28 08:23:16;;;;;;;14.57;10.70;;;;;;;-144.85;100.00;61331.59;5038784;28;31612;-80
2023/04/28 08:25:43;;;;;;;16.48;11.20;;;;;;;-144.85;100.00;61331.59;5039651;28;32255;-80
2023/04/28 08:28:11;;;;;;;17.30;11.15;;;;;;;-144.85;100.00;61331.59;5056271;28;31140;-81
2023/04/28 08:30:38;;;;;;;16.60;11.48;;;;;;;-144.85;100.00;61331.59;5051289;28;31837;-82
2023/04/28 08:33:05;;;;;;;14.65;11.30;;;;;;;-144.85;100.00;61331.59;5053033;28;31836;-79
2023/04/28 08:35:33;;;;;;;16.52;11.70;;;;;;;-144.85;100.00;61331.59;5049295;28;31286;-80
2023/04/28 08:38:00;;;;;;;18.55;11.77;;;;;;;-144.85;100.00;61331.59;5037639;28;32504;-79
2023/04/28 08:40:30;;;;;;;17.33;11.95;;;;;;;-144.85;100.00;61331.59;5040477;28;31826;-80
2023/04/28 08:42:58;;;;;;;17.70;13.02;;;;;;;-144.85;100.00;61331.59;5041169;28;31532;-79
2023/04/28 08:45:29;;;;;;;17.60;13.13;;;;;;;-144.85;100.00;61331.59;5029849;28;31489;-81
2023/04/28 08:47:58;;;;;;;18.15;12.82;;;;;;;-144.85;100.00;61331.59;5025058;28;31200;-80
2023/04/28 08:50:30;;;;;;;18.75;13.60;;;;;;;-144.85;100.00;61331.59;5055235;28;31676;-80
2023/04/28 08:52:57;;;;;;;21.17;13.50;;;;;;;-144.85;100.00;61331.59;5035396;28;31238;-81
2023/04/28 08:55:26;;;;;;;17.42;13.10;;;;;;;-144.85;100.00;61331.59;5039044;28;32396;-80
2023/04/28 08:57:54;;;;;;;21.30;12.95;;;;;;;-144.85;100.00;61331.59;5039246;28;32159;-82
2023/04/28 09:00:21;;;;;;;16.67;12.30;;;;;;;-144.85;100.00;61331.59;5044380;28;31038;-80
2023/04/28 09:02:48;;;;;;;17.95;13.18;;;;;;;-144.85;100.00;61331.59;5036319;28;31793;-80
2023/04/28 09:05:16;;;;;;;19.15;12.73;;;;;;;-144.85;100.00;61331.59;5025085;28;32310;-80
2023/04/28 09:07:47;;;;;;;15.25;11.98;;;;;;;-144.85;100.00;61331.59;5035444;28;32425;-79
2023/04/28 09:10:22;;;;;;;18.15;12.15;;;;;;;-144.85;100.00;61331.59;5049059;28;33623;-78
2023/04/28 09:12:51;;;;;;;18.58;11.80;;;;;;;-144.85;100.00;61331.59;5021896;28;32162;-80
2023/04/28 09:15:25;;;;;;;17.60;12.98;;;;;;;-144.85;100.00;61331.59;5053734;28;32288;-80
2023/04/28 09:17:52;;;;;;;18.20;12.88;;;;;;;-144.85;100.00;61331.59;5046153;28;32417;-80
2023/04/28 09:20:24;;;;;;;14.02;11.30;;;;;;;-144.85;100.00;61331.59;5038383;28;32252;-80
2023/04/28 09:22:53;;;;;;;15.75;11.82;;;;;;;-144.85;100.00;61331.59;5038936;28;31625;-82
2023/04/28 09:25:22;;;;;;;14.75;11.77;;;;;;;-144.85;100.00;61331.59;5055251;28;30918;-80
2023/04/28 09:27:49;;;;;;;13.90;11.57;;;;;;;-144.85;100.00;61331.59;5055299;28;33728;-79
2023/04/28 09:30:17;;;;;;;15.05;11.35;;;;;;;-144.85;100.00;61331.59;5046615;28;32175;-81
2023/04/28 09:32:44;;;;;;;14.50;10.60;;;;;;;-144.85;100.00;61331.59;5037349;28;31655;-79
2023/04/28 09:35:11;;;;;;;13.35;10.88;;;;;;;-144.85;100.00;61331.59;5039749;28;31126;-79
2023/04/28 09:37:38;;;;;;;14.57;11.38;;;;;;;-144.85;100.00;61331.59;5038525;28;31436;-78
2023/04/28 09:40:08;;;;;;;13.32;11.00;;;;;;;-144.85;100.00;61331.59;5048619;28;33117;-79
2023/04/28 09:42:43;;;;;;;14.75;10.75;;;;;;;-144.85;100.00;61331.59;5041606;28;30666;-79
2023/04/28 09:45:12;;;;;;;13.00;10.57;;;;;;;-144.85;100.00;61331.59;5046907;28;31124;-78
2023/04/28 09:47:42;;;;;;;13.20;9.82;;;;;;;-144.85;100.00;61331.59;5036681;28;31262;-79
2023/04/28 09:50:13;;;;;;;11.73;9.93;;;;;;;-144.85;100.00;61331.59;5054482;28;31881;-78
2023/04/28 09:52:47;;;;;;;12.70;9.73;;;;;;;-144.85;100.00;61331.59;5037766;28;31718;-80
2023/04/28 09:55:15;;;;;;;12.85;10.23;;;;;;;-144.85;100.00;61331.59;5050319;28;30359;-79
2023/04/28 09:57:44;;;;;;;13.07;9.95;;;;;;;-144.85;100.00;61331.59;5035429;28;33035;-78
2023/04/28 10:00:12;;;;;;;13.18;9.90;;;;;;;-144.85;100.00;61331.59;5049334;28;32986;-79
2023/04/28 10:02:40;;;;;;;13.45;9.60;;;;;;;-144.85;100.00;61331.59;5028794;28;31837;-78
2023/04/28 10:05:11;;;;;;;12.52;10.15;;;;;;;-144.85;100.00;61331.59;5051797;28;30568;-79
2023/04/28 10:07:39;;;;;;;13.35;10.25;;;;;;;-144.85;100.00;61331.59;5027462;28;33083;-79
2023/04/28 10:10:07;;;;;;;14.35;10.82;;;;;;;-144.85;100.00;61331.59;5036390;28;31788;-80
2023/04/28 10:12:36;;;;;;;14.30;11.02;;;;;;;-144.85;100.00;61331.59;5037187;28;31806;-78
2023/04/28 10:15:06;;;;;;;12.38;10.90;;;;;;;-144.85;100.00;61331.59;5036336;28;32096;-81
2023/04/28 10:17:35;;;;;;;13.32;11.30;;;;;;;-144.85;100.00;61331.59;5052238;28;32081;-78
2023/04/28 10:20:04;;;;;;;13.73;12.07;;;;;;;-144.85;100.00;61331.59;5036694;28;32956;-80
2023/04/28 10:22:53;;;;;;;13.73;11.30;;;;;;;-144.85;100.00;61331.59;5035567;28;33037;-77
2023/04/28 10:25:30;;;;;;;13.77;11.18;;;;;;;-144.85;100.00;61331.59;5053580;28;32754;-78
2023/04/28 10:27:59;;;;;;;13.40;11.38;;;;;;;-144.85;100.00;61331.59;5034757;28;32577;-76
2023/04/28 10:30:27;;;;;;;14.60;10.75;;;;;;;-144.85;100.00;61331.59;5036799;28;31421;-76
2023/04/28 10:33:05;;;;;;;16.25;12.05;;;;;;;-144.85;100.00;61331.59;5051902;28;32665;-75
2023/04/28 10:35:35;;;;;;;15.10;11.57;;;;;;;-144.85;100.00;61331.59;5037517;28;32536;-77
2023/04/28 10:38:20;;;;;;;14.15;11.70;;;;;;;-144.85;100.00;61331.59;5036422;28;32463;-77
2023/04/28 10:40:48;;;;;;;;;;;;;;;-144.85;100.00;61331.59;5053994;28;31513;-79
2023/04/28 10:43:25;;;;;;;16.65;12.73;;;;;;;-144.85;100.00;61331.59;5033325;28;33239;-78
2023/04/28 10:45:53;;;;;;;16.88;12.45;;;;;;;-144.85;100.00;61331.59;5051448;28;31115;-78
2023/04/28 10:48:32;;;;;;;16.52;12.95;;;;;;;-144.85;100.00;61331.59;5049169;28;31270;-78
2023/04/28 10:51:08;;;;;;;15.50;12.65;;;;;;;-144.85;100.00;61331.59;5033256;28;33155;-77
2023/04/28 10:53:41;;;;;;;19.10;13.57;;;;;;;-144.85;100.00;61331.59;5033673;28;31739;-79
2023/04/28 10:56:28;;;;;;;17.55;13.02;;;;;;;-144.85;100.00;61331.59;5037120;28;31694;-77
2023/04/28 10:58:57;;;;;;;17.08;12.98;;;;;;;-144.85;100.00;61331.59;5032847;28;32337;-79
2023/04/28 11:01:29;;;;;;;14.82;11.93;;;;;;;-144.85;100.00;61331.59;5035986;28;31876;-77
2023/04/28 11:04:09;;;;;;;16.52;12.18;;;;;;;-144.85;100.00;61331.59;5036327;28;31647;-77
2023/04/28 11:06:41;;;;;;;16.05;11.68;;;;;;;-144.85;100.00;61331.59;5019953;28;30203;-77